createdAt,value
2022-09-06T00:01:23.574Z,1.87
2022-09-06T00:03:51.941Z,1.90
2022-09-06T00:06:20.674Z,1.67
2022-09-06T00:08:49.031Z,1.70
2022-09-06T00:11:17.596Z,1.70
2022-09-06T00:13:48.583Z,2.00
2022-09-06T00:16:17.619Z,1.90
2022-09-06T00:18:47.073Z,2.50
2022-09-06T00:21:16.731Z,1.73
2022-09-06T00:23:44.869Z,2.30
2022-09-06T00:26:12.825Z,2.00
2022-09-06T00:28:40.775Z,1.77
2022-09-06T00:31:12.433Z,1.90
2022-09-06T00:33:40.448Z,1.67
2022-09-06T00:36:09.935Z,1.93
2022-09-06T00:38:37.955Z,1.90
2022-09-06T00:41:06.308Z,2.40
2022-09-06T00:43:34.451Z,1.93
2022-09-06T00:46:02.445Z,1.80
2022-09-06T00:48:30.983Z,2.53
2022-09-06T00:51:03.424Z,2.20
2022-09-06T00:53:33.109Z,2.13
2022-09-06T00:56:01.124Z,1.97
2022-09-06T00:58:29.238Z,1.90
2022-09-06T01:00:57.268Z,2.80
2022-09-06T01:03:25.459Z,2.30
2022-09-06T01:05:59.029Z,2.50
2022-09-06T01:08:41.173Z,2.07
2022-09-06T01:11:17.338Z,2.13
2022-09-06T01:13:49.882Z,2.33
2022-09-06T01:16:22.221Z,2.33
2022-09-06T01:19:01.838Z,2.40
2022-09-06T01:21:38.642Z,2.30
2022-09-06T01:24:30.952Z,2.53
2022-09-06T01:27:25.737Z,2.63
2022-09-06T01:29:56.469Z,2.60
2022-09-06T01:32:28.131Z,2.10
2022-09-06T01:35:00.127Z,2.27
2022-09-06T01:37:28.078Z,2.03
2022-09-06T01:39:56.095Z,2.40
2022-09-06T01:42:25.040Z,3.03
2022-09-06T01:44:55.193Z,2.63
2022-09-06T01:47:28.547Z,2.50
2022-09-06T01:50:08.912Z,3.47
2022-09-06T01:52:39.437Z,2.90
2022-09-06T01:55:13.594Z,2.40
2022-09-06T01:57:49.621Z,2.63
2022-09-06T02:00:19.608Z,2.33
2022-09-06T02:02:53.421Z,2.20
2022-09-06T02:05:23.986Z,3.07
2022-09-06T02:07:52.490Z,2.80
2022-09-06T02:10:23.536Z,2.43
2022-09-06T02:12:53.279Z,2.60
2022-09-06T02:15:23.757Z,2.70
2022-09-06T02:17:53.631Z,2.13
2022-09-06T02:20:23.276Z,2.80
2022-09-06T02:22:51.239Z,2.43
2022-09-06T02:25:22.756Z,2.60
2022-09-06T02:27:50.778Z,2.50
2022-09-06T02:30:18.820Z,2.63
2022-09-06T02:32:50.936Z,2.60
2022-09-06T02:35:18.852Z,2.70
2022-09-06T02:37:46.865Z,2.40
2022-09-06T02:40:14.906Z,2.70
2022-09-06T02:42:42.980Z,2.50
2022-09-06T02:45:11.611Z,2.60
2022-09-06T02:47:39.572Z,3.40
2022-09-06T02:50:09.885Z,3.00
2022-09-06T02:52:37.873Z,2.50
2022-09-06T02:55:06.871Z,2.30
2022-09-06T02:57:34.838Z,2.80
2022-09-06T03:00:03.193Z,2.27
2022-09-06T03:02:31.223Z,2.80
2022-09-06T03:04:59.153Z,2.50
2022-09-06T03:07:28.449Z,3.40
2022-09-06T03:09:57.051Z,2.63
2022-09-06T03:12:25.036Z,2.53
2022-09-06T03:14:55.029Z,2.77
2022-09-06T03:17:23.188Z,2.80
2022-09-06T03:19:51.133Z,3.17
2022-09-06T03:22:19.137Z,2.90
2022-09-06T03:24:49.178Z,2.93
2022-09-06T03:27:17.154Z,2.97
2022-09-06T03:29:45.199Z,3.10
2022-09-06T03:32:13.144Z,2.83
2022-09-06T03:34:41.095Z,2.73
2022-09-06T03:37:09.093Z,2.70
2022-09-06T03:39:37.279Z,2.70
2022-09-06T03:42:06.931Z,2.67
2022-09-06T03:44:34.870Z,3.00
2022-09-06T03:47:02.800Z,2.70
2022-09-06T03:49:30.789Z,2.40
2022-09-06T03:51:58.768Z,2.70
2022-09-06T03:54:28.537Z,2.83
2022-09-06T03:56:57.388Z,3.33
2022-09-06T03:59:26.708Z,3.13
2022-09-06T04:01:54.678Z,2.83
2022-09-06T04:04:22.684Z,2.87
2022-09-06T04:06:50.634Z,3.00
2022-09-06T04:09:18.726Z,3.10
2022-09-06T04:11:46.726Z,2.97
2022-09-06T04:14:14.785Z,3.40
2022-09-06T04:16:44.159Z,2.57
2022-09-06T04:19:12.164Z,2.50
2022-09-06T04:21:40.108Z,2.90
2022-09-06T04:24:08.145Z,3.40
2022-09-06T04:26:36.106Z,3.73
2022-09-06T04:29:04.103Z,3.27
2022-09-06T04:31:32.139Z,3.20
2022-09-06T04:34:01.506Z,3.47
2022-09-06T04:36:29.924Z,3.47
2022-09-06T04:38:57.916Z,3.10
2022-09-06T04:41:25.878Z,2.87
2022-09-06T04:43:53.846Z,2.93
2022-09-06T04:46:22.616Z,4.03
2022-09-06T04:48:50.641Z,3.40
2022-09-06T04:51:20.039Z,3.03
2022-09-06T04:53:48.400Z,2.83
2022-09-06T04:56:17.282Z,3.10
2022-09-06T04:58:45.729Z,3.20
2022-09-06T05:01:13.743Z,3.40
2022-09-06T05:03:41.762Z,3.10
2022-09-06T05:06:10.778Z,3.33
2022-09-06T05:08:40.624Z,3.20
2022-09-06T05:11:09.104Z,2.90
2022-09-06T05:13:37.089Z,3.10
2022-09-06T05:16:06.400Z,3.20
2022-09-06T05:18:34.736Z,3.37
2022-09-06T05:21:02.699Z,3.30
2022-09-06T05:23:30.825Z,3.40
2022-09-06T05:26:00.204Z,3.50
2022-09-06T05:28:28.325Z,3.13
2022-09-06T05:31:06.676Z,3.17
2022-09-06T05:33:34.787Z,3.90
2022-09-06T05:36:03.534Z,3.10
2022-09-06T05:38:31.643Z,3.50
2022-09-06T05:41:01.244Z,3.00
2022-09-06T05:43:29.214Z,3.33
2022-09-06T05:45:57.286Z,3.10
2022-09-06T05:48:28.773Z,3.50
2022-09-06T05:51:02.085Z,3.43
2022-09-06T05:53:35.233Z,3.17
2022-09-06T05:56:05.170Z,3.80
2022-09-06T05:58:33.099Z,3.10
2022-09-06T06:01:08.639Z,3.37
2022-09-06T06:03:39.267Z,3.00
2022-09-06T06:06:07.716Z,4.13
2022-09-06T06:08:36.194Z,3.13
2022-09-06T06:11:05.678Z,3.27
2022-09-06T06:13:35.061Z,3.53
2022-09-06T06:16:03.698Z,3.20
2022-09-06T06:18:31.675Z,3.73
2022-09-06T06:21:10.273Z,3.07
2022-09-06T06:23:38.622Z,3.20
2022-09-06T06:26:09.320Z,3.47
2022-09-06T06:28:37.280Z,3.00
2022-09-06T06:31:05.515Z,3.27
2022-09-06T06:33:33.569Z,3.27
2022-09-06T06:36:02.608Z,3.17
2022-09-06T06:38:33.449Z,3.57
2022-09-06T06:41:06.400Z,3.10
2022-09-06T06:43:38.096Z,3.30
2022-09-06T06:46:06.889Z,3.80
2022-09-06T06:48:34.944Z,3.80
2022-09-06T06:51:14.138Z,3.60
2022-09-06T06:53:42.196Z,3.97
2022-09-06T06:56:17.600Z,3.37
2022-09-06T06:58:50.006Z,3.07
2022-09-06T07:01:18.080Z,3.77
2022-09-06T07:03:49.435Z,3.57
2022-09-06T07:06:18.499Z,3.70
2022-09-06T07:08:46.634Z,3.13
2022-09-06T07:11:15.645Z,3.47
2022-09-06T07:13:43.739Z,3.23
2022-09-06T07:16:13.955Z,2.90
2022-09-06T07:18:42.982Z,3.63
2022-09-06T07:24:08.491Z,2.50
2022-09-06T07:26:38.395Z,3.30
2022-09-06T07:29:07.206Z,2.87
2022-09-06T07:34:27.215Z,4.03
2022-09-06T07:36:55.508Z,3.30
2022-09-06T07:39:23.592Z,3.10
2022-09-06T07:41:53.625Z,3.07
2022-09-06T07:44:23.081Z,2.87
2022-09-06T07:46:52.764Z,3.30
2022-09-06T07:49:23.768Z,3.07
2022-09-06T07:51:53.832Z,2.73
2022-09-06T07:54:31.537Z,3.90
2022-09-06T07:56:59.811Z,3.40
2022-09-06T07:59:27.778Z,2.60
2022-09-06T08:01:57.217Z,3.40
2022-09-06T08:04:25.240Z,3.37
2022-09-06T08:09:41.874Z,2.93
2022-09-06T08:12:10.030Z,3.07
2022-09-06T08:14:37.968Z,3.13
2022-09-06T08:17:10.202Z,2.90
2022-09-06T08:19:38.207Z,3.17
2022-09-06T08:22:06.340Z,2.83
2022-09-06T08:24:35.812Z,3.20
2022-09-06T08:27:07.636Z,3.10
2022-09-06T08:29:35.634Z,2.60
2022-09-06T08:32:04.020Z,3.00
2022-09-06T08:34:33.556Z,3.20
2022-09-06T08:37:10.622Z,3.20
2022-09-06T08:39:38.672Z,3.23
2022-09-06T08:42:07.335Z,2.77
2022-09-06T08:47:25.580Z,2.93
2022-09-06T08:49:56.323Z,2.87
2022-09-06T08:52:45.373Z,3.13
2022-09-06T08:55:32.870Z,2.97
2022-09-06T08:58:30.815Z,2.60
2022-09-06T09:01:00.131Z,2.53
2022-09-06T09:03:31.003Z,3.60
2022-09-06T09:06:03.527Z,2.77
2022-09-06T09:08:41.305Z,2.77
2022-09-06T09:11:11.492Z,2.90
2022-09-06T09:13:41.352Z,2.93
2022-09-06T09:16:09.353Z,2.40
2022-09-06T09:18:38.636Z,2.43
2022-09-06T09:21:08.003Z,2.13
2022-09-06T09:23:36.238Z,2.10
2022-09-06T09:26:05.866Z,2.43
2022-09-06T09:28:33.822Z,2.20
2022-09-06T09:31:02.133Z,2.13
2022-09-06T09:33:31.351Z,2.30
2022-09-06T09:36:07.947Z,2.42
2022-09-06T09:38:42.105Z,2.23
2022-09-06T09:41:10.079Z,2.00
2022-09-06T09:43:38.842Z,2.03
2022-09-06T09:46:18.123Z,1.67
2022-09-06T09:48:49.735Z,2.35
2022-09-06T09:51:26.183Z,2.22
2022-09-06T09:53:57.421Z,2.03
2022-09-06T09:56:33.459Z,1.98
2022-09-06T09:59:01.500Z,2.53
2022-09-06T10:01:31.074Z,2.45
2022-09-06T10:09:37.024Z,2.13
2022-09-06T10:12:05.316Z,2.08
2022-09-06T10:14:34.248Z,2.72
2022-09-06T10:17:02.209Z,1.85
2022-09-06T10:19:41.537Z,1.95
2022-09-06T10:22:33.198Z,2.10
2022-09-06T10:25:39.208Z,2.75
2022-09-06T10:28:30.009Z,2.47
2022-09-06T10:31:27.171Z,1.95
2022-09-06T10:34:03.730Z,2.20
2022-09-06T10:36:34.980Z,2.60
2022-09-06T10:39:06.337Z,2.22
2022-09-06T10:41:47.405Z,3.08
2022-09-06T10:44:24.329Z,2.45
2022-09-06T10:46:54.718Z,2.00
2022-09-06T10:49:23.094Z,2.97
2022-09-06T10:51:53.077Z,2.37
2022-09-06T10:54:22.782Z,2.47
2022-09-06T10:56:54.018Z,2.33
2022-09-06T10:59:39.288Z,2.40
2022-09-06T11:02:14.797Z,2.10
2022-09-06T11:07:32.221Z,2.17
2022-09-06T11:10:01.988Z,2.70
2022-09-06T11:12:33.969Z,2.43
2022-09-06T11:15:02.132Z,2.47
2022-09-06T11:17:31.951Z,2.40
2022-09-06T11:20:04.975Z,2.30
2022-09-06T11:22:59.498Z,2.20
2022-09-06T11:25:36.769Z,2.27
2022-09-06T11:28:06.810Z,2.22
2022-09-06T11:30:41.175Z,2.13
2022-09-06T11:33:18.677Z,2.33
2022-09-06T11:35:46.788Z,1.40
2022-09-06T11:38:24.510Z,1.80
2022-09-06T11:40:58.600Z,1.67
2022-09-06T11:43:47.989Z,2.15
2022-09-06T11:46:53.787Z,1.98
2022-09-06T11:49:36.395Z,1.77
2022-09-06T11:52:19.744Z,2.17
2022-09-06T11:54:47.669Z,1.70
2022-09-06T11:57:16.823Z,2.20
2022-09-06T11:59:57.451Z,2.03
2022-09-06T12:02:35.113Z,1.65
2022-09-06T12:05:18.761Z,1.92
2022-09-06T12:08:15.610Z,1.55
2022-09-06T12:10:49.669Z,2.05
2022-09-06T12:13:42.478Z,1.75
2022-09-06T12:16:12.585Z,1.90
2022-09-06T12:19:00.457Z,2.13
2022-09-06T12:21:39.412Z,1.70
2022-09-06T12:24:07.990Z,1.80
2022-09-06T12:26:55.260Z,2.17
2022-09-06T12:29:25.249Z,1.40
2022-09-06T12:32:01.627Z,1.50
2022-09-06T12:34:31.408Z,1.75
2022-09-06T12:37:00.564Z,1.50
2022-09-06T12:39:28.564Z,1.20
2022-09-06T12:41:57.399Z,1.20
2022-09-06T12:44:34.207Z,0.93
2022-09-06T12:47:07.653Z,1.00
2022-09-06T12:49:35.890Z,0.90
2022-09-06T12:52:08.292Z,1.00
2022-09-06T12:54:40.720Z,0.90
2022-09-06T12:57:16.592Z,0.90
2022-09-06T12:59:54.893Z,1.10
2022-09-06T13:02:28.879Z,0.90
2022-09-06T13:05:01.265Z,1.15
2022-09-06T13:07:32.044Z,0.90
2022-09-06T13:09:59.994Z,1.00
2022-09-06T13:12:29.661Z,0.95
2022-09-06T13:14:59.550Z,1.00
2022-09-06T13:17:30.261Z,1.30
2022-09-06T13:19:59.919Z,1.58
2022-09-06T13:22:42.632Z,1.33
2022-09-06T13:25:20.708Z,1.65
2022-09-06T13:27:50.888Z,1.70
2022-09-06T13:30:36.048Z,1.50
2022-09-06T13:33:06.078Z,1.73
2022-09-06T13:35:35.594Z,1.88
2022-09-06T13:38:31.823Z,1.70
2022-09-06T13:41:16.906Z,1.48
2022-09-06T13:43:46.128Z,1.92
2022-09-06T13:46:14.255Z,2.10
2022-09-06T13:48:44.646Z,1.50
2022-09-06T13:51:13.124Z,1.67
2022-09-06T13:53:41.103Z,1.75
2022-09-06T13:56:09.112Z,2.10
2022-09-06T13:58:37.342Z,1.80
2022-09-06T14:01:10.843Z,1.70
2022-09-06T14:03:41.930Z,1.90
2022-09-06T14:06:14.113Z,2.05
2022-09-06T14:09:05.692Z,2.00
2022-09-06T14:11:31.048Z,1.98
2022-09-06T14:14:00.850Z,1.73
2022-09-06T14:16:28.963Z,1.52
2022-09-06T14:18:59.806Z,2.00
2022-09-06T14:21:31.584Z,2.08
2022-09-06T14:24:04.086Z,2.17
2022-09-06T14:26:33.150Z,1.73
2022-09-06T14:29:01.229Z,1.60
2022-09-06T14:31:29.445Z,1.85
2022-09-06T14:33:57.715Z,2.22
2022-09-06T14:36:26.356Z,1.88
2022-09-06T14:38:55.705Z,1.77
2022-09-06T14:41:23.606Z,2.30
2022-09-06T14:43:52.172Z,2.25
2022-09-06T14:46:25.972Z,1.92
2022-09-06T14:49:06.183Z,2.10
2022-09-06T14:51:34.470Z,1.73
2022-09-06T14:54:13.068Z,2.20
2022-09-06T14:56:41.854Z,2.00
2022-09-06T14:59:13.766Z,2.20
2022-09-06T15:01:46.150Z,1.88
2022-09-06T15:04:17.016Z,1.75
2022-09-06T15:06:59.387Z,2.00
2022-09-06T15:09:29.009Z,2.20
2022-09-06T15:11:56.888Z,2.28
2022-09-06T15:14:26.086Z,1.83
2022-09-06T15:16:56.636Z,1.65
2022-09-06T15:19:24.840Z,2.03
2022-09-06T15:21:52.797Z,1.80
2022-09-06T15:24:20.952Z,1.98
2022-09-06T15:26:50.381Z,1.60
2022-09-06T15:29:18.482Z,1.50
2022-09-06T15:31:50.347Z,2.22
2022-09-06T15:34:18.571Z,1.75
2022-09-06T15:36:46.703Z,1.73
2022-09-06T15:39:15.187Z,1.90
2022-09-06T15:41:43.129Z,1.80
2022-09-06T15:44:13.384Z,1.73
2022-09-06T15:46:50.460Z,2.10
2022-09-06T15:49:19.376Z,1.48
2022-09-06T15:51:47.393Z,1.85
2022-09-06T15:54:16.331Z,1.83
2022-09-06T15:56:43.370Z,2.13
2022-09-06T15:59:12.955Z,2.03
2022-09-06T16:01:41.208Z,1.92
2022-09-06T16:04:09.206Z,2.50
2022-09-06T16:07:16.082Z,2.05
2022-09-06T16:09:44.220Z,2.15
2022-09-06T16:12:12.502Z,2.08
2022-09-06T16:14:42.023Z,2.17
2022-09-06T16:17:10.186Z,1.98
2022-09-06T16:19:38.284Z,2.38
2022-09-06T16:22:06.616Z,2.50
2022-09-06T16:24:34.747Z,2.55
2022-09-06T16:27:05.858Z,2.90
2022-09-06T16:29:33.859Z,2.05
2022-09-06T16:32:05.461Z,3.10
2022-09-06T16:34:33.877Z,2.33
2022-09-06T16:37:07.800Z,2.95
2022-09-06T16:39:35.805Z,2.90
2022-09-06T16:42:03.775Z,2.80
2022-09-06T16:44:32.176Z,2.90
2022-09-06T16:47:03.961Z,3.60
2022-09-06T16:49:33.479Z,3.00
2022-09-06T16:52:01.434Z,3.40
2022-09-06T16:54:29.897Z,3.17
2022-09-06T16:56:58.022Z,3.30
2022-09-06T16:59:26.437Z,2.43
2022-09-06T17:01:56.196Z,1.93
2022-09-06T17:04:24.554Z,1.43
2022-09-06T17:06:53.909Z,1.10
2022-09-06T17:09:22.037Z,1.30
2022-09-06T17:11:50.624Z,1.30
2022-09-06T17:14:18.856Z,1.50
2022-09-06T17:17:04.392Z,0.80
2022-09-06T17:19:32.480Z,0.80
2022-09-06T17:22:02.069Z,0.70
2022-09-06T17:24:30.004Z,0.80
2022-09-06T17:26:57.920Z,0.63
2022-09-06T17:29:26.665Z,1.07
2022-09-06T17:31:57.524Z,0.80
2022-09-06T17:34:25.584Z,0.80
2022-09-06T17:36:53.732Z,1.00
2022-09-06T17:39:23.212Z,0.80
2022-09-06T17:41:52.266Z,0.90
2022-09-06T17:44:21.765Z,1.07
2022-09-06T17:47:11.492Z,0.90
2022-09-06T17:49:37.893Z,1.00
2022-09-06T17:52:05.910Z,1.20
2022-09-06T17:54:35.210Z,2.17
2022-09-06T17:57:04.929Z,2.43
2022-09-06T17:59:35.803Z,1.87
2022-09-06T18:02:10.133Z,1.30
2022-09-06T18:04:38.436Z,1.87
2022-09-06T18:07:06.475Z,3.07
2022-09-06T18:09:36.987Z,2.67
2022-09-06T18:12:09.369Z,2.53
2022-09-06T18:14:37.656Z,1.77
2022-09-06T18:17:05.764Z,1.87
2022-09-06T18:19:33.737Z,2.00
2022-09-06T18:22:01.714Z,2.13
2022-09-06T18:24:29.622Z,2.87
2022-09-06T18:27:02.842Z,1.70
2022-09-06T18:29:30.769Z,1.30
2022-09-06T18:31:58.924Z,1.33
2022-09-06T18:34:28.190Z,1.20
2022-09-06T18:36:56.206Z,1.33
2022-09-06T18:39:24.288Z,1.30
2022-09-06T18:42:01.256Z,1.10
2022-09-06T18:44:33.098Z,1.20
2022-09-06T18:47:02.056Z,0.87
2022-09-06T18:49:30.316Z,1.30
2022-09-06T18:51:58.257Z,1.30
2022-09-06T18:54:26.254Z,1.03
2022-09-06T18:56:54.318Z,1.43
2022-09-06T18:59:22.571Z,1.40
2022-09-06T19:01:52.052Z,1.20
2022-09-06T19:04:20.252Z,1.20
2022-09-06T19:06:48.193Z,1.37
2022-09-06T19:09:17.231Z,1.40
2022-09-06T19:11:46.976Z,1.03
2022-09-06T19:14:15.012Z,2.37
2022-09-06T19:16:43.052Z,1.50
2022-09-06T19:19:13.484Z,1.20
2022-09-06T19:21:42.612Z,1.10
2022-09-06T19:24:11.909Z,1.40
2022-09-06T19:26:41.566Z,1.40
2022-09-06T19:29:12.352Z,1.50
2022-09-06T19:31:40.428Z,1.07
2022-09-06T19:34:08.577Z,1.10
2022-09-06T19:36:37.863Z,1.67
2022-09-06T19:39:06.898Z,1.20
2022-09-06T19:41:35.801Z,1.50
2022-09-06T19:44:05.909Z,1.27
2022-09-06T19:46:34.945Z,1.50
2022-09-06T19:49:03.315Z,1.90
2022-09-06T19:51:34.126Z,1.60
2022-09-06T19:54:03.390Z,1.60
2022-09-06T19:56:34.933Z,1.33
2022-09-06T19:59:03.633Z,1.80
2022-09-06T20:01:32.770Z,1.70
2022-09-06T20:04:02.481Z,1.97
2022-09-06T20:06:30.464Z,1.73
2022-09-06T20:08:58.864Z,2.10
2022-09-06T20:11:29.041Z,1.73
2022-09-06T20:13:57.103Z,1.90
2022-09-06T20:16:25.811Z,1.70
2022-09-06T20:18:55.860Z,2.53
2022-09-06T20:21:23.827Z,2.00
2022-09-06T20:23:52.107Z,1.70
2022-09-06T20:26:20.089Z,2.80
2022-09-06T20:28:49.362Z,1.90
2022-09-06T20:31:18.663Z,2.20
2022-09-06T20:33:49.665Z,2.10
2022-09-06T20:36:18.236Z,2.53
2022-09-06T20:38:46.837Z,2.40
2022-09-06T20:41:16.478Z,2.50
2022-09-06T20:43:51.382Z,2.67
2022-09-06T20:46:20.402Z,2.30
2022-09-06T20:48:48.691Z,2.40
2022-09-06T20:51:25.222Z,2.50
2022-09-06T20:53:57.375Z,2.57
2022-09-06T20:56:30.144Z,2.03
2022-09-06T20:59:00.977Z,2.70
2022-09-06T21:01:31.223Z,2.50
2022-09-06T21:04:00.500Z,2.37
2022-09-06T21:06:29.060Z,2.87
2022-09-06T21:08:57.736Z,2.47
2022-09-06T21:11:25.634Z,2.77
2022-09-06T21:13:55.833Z,2.87
2022-09-06T21:16:25.737Z,2.90
2022-09-06T21:18:53.935Z,2.87
2022-09-06T21:21:22.255Z,3.30
2022-09-06T21:23:50.350Z,2.80
2022-09-06T21:26:18.354Z,2.83
2022-09-06T21:28:47.091Z,2.70
2022-09-06T21:31:17.027Z,2.70
2022-09-06T21:33:47.348Z,2.50
2022-09-06T21:36:16.248Z,2.37
2022-09-06T21:38:45.362Z,3.50
2022-09-06T21:41:14.135Z,3.43
2022-09-06T21:43:42.402Z,3.00
2022-09-06T21:46:11.065Z,2.63
2022-09-06T21:48:41.671Z,3.10
2022-09-06T21:51:13.055Z,3.23
2022-09-06T21:53:41.032Z,3.50
2022-09-06T21:56:09.014Z,3.30
2022-09-06T21:58:36.987Z,3.30
2022-09-06T22:01:05.140Z,3.30
2022-09-06T22:03:34.616Z,3.30
2022-09-06T22:06:10.718Z,3.47
2022-09-06T22:08:39.076Z,3.30
2022-09-06T22:11:09.701Z,3.70
2022-09-06T22:13:37.613Z,2.73
2022-09-06T22:16:07.985Z,3.27
2022-09-06T22:18:36.212Z,3.30
2022-09-06T22:21:06.556Z,3.70
2022-09-06T22:23:35.847Z,3.60
2022-09-06T22:26:04.979Z,3.53
2022-09-06T22:28:33.041Z,3.47
2022-09-06T22:31:00.965Z,3.13
2022-09-06T22:33:29.345Z,3.13
2022-09-06T22:35:58.097Z,3.10
2022-09-06T22:38:26.016Z,3.73
2022-09-06T22:40:56.112Z,3.23
2022-09-06T22:43:24.091Z,3.13
2022-09-06T22:45:52.291Z,3.23
2022-09-06T22:48:20.283Z,2.73
2022-09-06T22:50:48.190Z,3.10
2022-09-06T22:53:16.309Z,2.70
2022-09-06T22:55:47.421Z,2.60
2022-09-06T22:58:16.704Z,2.83
2022-09-06T23:00:44.630Z,2.87
2022-09-06T23:03:12.676Z,3.57
2022-09-06T23:05:40.806Z,3.20
2022-09-06T23:08:08.721Z,3.30
2022-09-06T23:10:40.472Z,3.27
2022-09-06T23:13:09.499Z,3.03
2022-09-06T23:15:40.714Z,3.70
2022-09-06T23:18:08.872Z,3.00
2022-09-06T23:20:36.879Z,3.70
2022-09-06T23:23:04.881Z,3.73
2022-09-06T23:25:32.770Z,3.07
2022-09-06T23:28:00.725Z,3.63
2022-09-06T23:30:28.701Z,3.27
2022-09-06T23:32:58.273Z,2.90
2022-09-06T23:35:26.232Z,3.90
2022-09-06T23:37:54.820Z,3.27
2022-09-06T23:40:22.768Z,3.77
2022-09-06T23:42:50.691Z,3.30
2022-09-06T23:45:18.599Z,3.47
2022-09-06T23:47:46.572Z,4.23
2022-09-06T23:50:15.896Z,3.40
2022-09-06T23:52:43.844Z,3.50
2022-09-06T23:55:11.754Z,3.67
2022-09-06T23:57:39.632Z,3.40
